createdAt,value
2018-01-23T00:00:49.859Z,30.5
2018-01-23T00:01:49.529Z,30.6
2018-01-23T00:02:49.901Z,30.7
2018-01-23T00:03:49.551Z,30.7
2018-01-23T00:04:49.435Z,30.9
2018-01-23T00:05:49.835Z,31.2
2018-01-23T00:06:49.916Z,31.4
2018-01-23T01:10:12.065Z,31.3
2018-01-23T01:10:14.215Z,32
2018-01-23T01:11:14.506Z,32.6
2018-01-23T01:12:14.114Z,33.1
2018-01-23T01:13:14.105Z,33.8
2018-01-23T01:14:13.905Z,34.6
2018-01-23T01:15:14.310Z,35.2
2018-01-23T01:16:14.044Z,35.6
2018-01-23T01:17:13.757Z,36.1
2018-01-23T01:18:13.559Z,36.4
2018-01-23T01:19:13.657Z,36.8
2018-01-23T01:20:13.852Z,37
2018-01-23T01:21:13.432Z,37.2
2018-01-23T01:22:13.606Z,37.3
2018-01-23T01:23:13.566Z,37.5
2018-01-23T01:24:13.520Z,37.4
2018-01-23T01:25:13.333Z,37.4
2018-01-23T01:26:13.229Z,37.4
2018-01-23T01:27:13.347Z,37.3
2018-01-23T01:28:12.949Z,37.1
2018-01-23T01:29:12.896Z,31.1
2018-01-23T01:30:13.205Z,26.5
2018-01-23T01:31:13.004Z,25.4
2018-01-23T01:32:12.948Z,28.9
2018-01-23T01:33:12.848Z,30.3
2018-01-23T01:34:12.532Z,25.4
2018-01-23T01:35:12.766Z,24.1
2018-01-23T01:36:12.693Z,24.2
2018-01-23T01:37:12.874Z,27.9
2018-01-23T01:38:12.505Z,29.6
2018-01-23T01:39:12.697Z,30.7
2018-01-23T01:40:12.182Z,30.8
2018-01-23T01:41:12.395Z,30.8
2018-01-23T01:42:12.938Z,30.8
2018-01-23T01:43:12.147Z,30.9
2018-01-23T01:44:11.926Z,31.1
2018-01-23T01:45:12.375Z,31.4
2018-01-23T01:46:11.605Z,31.7
2018-01-23T01:47:12.186Z,31.9
2018-01-23T01:48:11.990Z,32.3
2018-01-23T01:49:11.477Z,32.6
2018-01-23T01:50:11.629Z,33.1
2018-01-23T01:51:11.383Z,33.7
2018-01-23T01:52:11.777Z,34.4
2018-01-23T01:53:11.639Z,35.2
2018-01-23T01:54:11.031Z,35.6
2018-01-23T01:55:10.935Z,35.9
2018-01-23T01:56:11.325Z,36.3
2018-01-23T01:57:11.113Z,36.6
2018-01-23T01:58:11.254Z,36.9
2018-01-23T01:59:11.062Z,37.1
2018-01-23T02:00:10.760Z,37.3
2018-01-23T02:01:11.279Z,37.4
2018-01-23T02:02:11.066Z,37.4
2018-01-23T02:03:10.410Z,37.4
2018-01-23T02:04:10.565Z,34.7
2018-01-23T02:05:10.645Z,28.7
2018-01-23T02:06:10.588Z,26.8
2018-01-23T02:07:10.556Z,26.8
2018-01-23T02:08:10.396Z,28.6
2018-01-23T02:09:10.205Z,30
2018-01-23T02:10:10.575Z,30.7
2018-01-23T02:11:10.324Z,30.8
2018-01-23T02:12:10.004Z,26.5
2018-01-23T02:13:09.946Z,9.2
2018-01-23T02:14:09.876Z,0.1
2018-01-23T02:15:10.096Z,0.9
2018-01-23T02:16:09.649Z,7.1
2018-01-23T02:17:09.351Z,21.1
2018-01-23T02:18:09.608Z,28.6
2018-01-23T02:19:09.402Z,32.6
2018-01-23T02:20:09.520Z,35.2
2018-01-23T02:21:09.008Z,37.3
2018-01-23T02:22:08.873Z,38.9
2018-01-23T02:23:08.905Z,39.9
2018-01-23T02:24:08.901Z,40.6
2018-01-23T02:25:09.092Z,41.2
2018-01-23T02:26:08.773Z,41.5
2018-01-23T02:27:09.020Z,41.5
2018-01-23T02:28:08.371Z,39.9
2018-01-23T02:29:08.723Z,35.9
2018-01-23T02:30:08.240Z,34.1
2018-01-23T02:31:08.657Z,32.7
2018-01-23T02:32:08.213Z,31.4
2018-01-23T02:33:08.391Z,27.9
2018-01-23T02:34:08.446Z,23.9
2018-01-23T02:35:08.084Z,23.1
2018-01-23T02:36:07.887Z,25.1
2018-01-23T02:37:08.251Z,28.6
2018-01-23T02:38:07.900Z,30.3
2018-01-23T02:39:07.929Z,31.3
2018-01-23T02:40:07.767Z,31.6
2018-01-23T02:41:07.701Z,31.8
2018-01-23T02:42:08.083Z,31.9
2018-01-23T02:43:07.365Z,32.1
2018-01-23T02:44:07.740Z,32.4
2018-01-23T03:43:37.574Z,32.3
2018-01-23T03:44:37.836Z,32.6
2018-01-23T03:45:37.597Z,32.8
2018-01-23T03:46:37.348Z,33.1
2018-01-23T03:47:37.425Z,33.6
2018-01-23T03:48:37.181Z,34.1
2018-01-23T03:49:37.116Z,34.4
2018-01-23T03:50:36.704Z,34.6
2018-01-23T03:51:37.447Z,35.1
2018-01-23T03:52:37.193Z,35.6
2018-01-23T03:53:36.760Z,36
2018-01-23T03:54:36.993Z,36.3
2018-01-23T03:55:36.249Z,36.6
2018-01-23T03:56:36.836Z,36.9
2018-01-23T03:57:36.300Z,37.2
2018-01-23T03:58:36.508Z,36.6
2018-01-23T03:59:36.204Z,31.9
2018-01-23T04:00:36.381Z,29.9
2018-01-23T04:01:36.021Z,29.2
2018-01-23T04:02:36.071Z,30.3
2018-01-23T04:03:35.913Z,31.1
2018-01-23T04:04:36.288Z,31.4
2018-01-23T04:05:35.870Z,31.4
2018-01-23T04:06:35.579Z,31.3
2018-01-23T04:07:35.864Z,31
2018-01-23T04:08:35.494Z,30.9
2018-01-23T04:09:35.367Z,30.9
2018-01-23T04:10:35.614Z,31.1
2018-01-23T04:11:35.647Z,31.3
2018-01-23T04:12:35.137Z,31.5
2018-01-23T04:13:35.040Z,31.8
2018-01-23T04:14:35.389Z,32.1
2018-01-23T04:15:34.750Z,32.3
2018-01-23T04:16:35.185Z,32.8
2018-01-23T04:17:34.768Z,33.6
2018-01-23T04:18:35.313Z,34.3
2018-01-23T04:19:34.355Z,34.8
2018-01-23T04:20:34.340Z,35.1
2018-01-23T04:21:35.189Z,35.4
2018-01-23T04:22:35.087Z,35.6
2018-01-23T04:23:34.484Z,36
2018-01-23T04:24:34.297Z,36.3
2018-01-23T04:25:34.208Z,36.4
2018-01-23T04:26:34.032Z,36.6
2018-01-23T04:27:33.972Z,36.8
2018-01-23T04:28:34.122Z,37
2018-01-23T04:29:33.896Z,37.1
2018-01-23T04:30:33.958Z,37.1
2018-01-23T04:31:33.591Z,37.1
2018-01-23T04:32:33.746Z,37.1
2018-01-23T04:33:33.601Z,32.4
2018-01-23T04:34:33.579Z,27.7
2018-01-23T04:35:33.259Z,26.4
2018-01-23T04:36:33.126Z,28.9
2018-01-23T04:37:33.552Z,30.9
2018-01-23T04:38:33.187Z,31.7
2018-01-23T04:39:33.092Z,31.9
2018-01-23T04:40:33.165Z,31.9
2018-01-23T04:41:32.742Z,31.9
2018-01-23T04:42:33.597Z,32.1
2018-01-23T04:43:32.857Z,32.3
2018-01-23T04:44:32.944Z,32.4
2018-01-23T04:45:32.537Z,32.7
2018-01-23T04:46:32.581Z,32.8
2018-01-23T04:47:32.620Z,33.1
2018-01-23T04:48:32.276Z,33.3
2018-01-23T04:49:32.100Z,33.4
2018-01-23T04:50:32.424Z,33.4
2018-01-23T04:51:32.399Z,33.9
2018-01-23T04:52:32.629Z,34.4
2018-01-23T04:53:32.191Z,34.8
2018-01-23T04:54:32.309Z,35
2018-01-23T04:55:32.258Z,35.3
2018-01-23T04:56:31.662Z,35.5
2018-01-23T04:57:31.652Z,35.6
2018-01-23T04:58:32.137Z,35.8
2018-01-23T04:59:31.379Z,36
2018-01-23T05:00:31.947Z,36.3
2018-01-23T05:01:31.330Z,36.4
2018-01-23T05:02:31.691Z,36.6
2018-01-23T05:03:31.379Z,36.7
2018-01-23T05:04:31.146Z,36.8
2018-01-23T05:05:31.134Z,36.8
2018-01-23T05:06:31.312Z,36.9
2018-01-23T05:07:31.072Z,36.9
2018-01-23T05:08:30.705Z,36.9
2018-01-23T05:09:31.140Z,36.5
2018-01-23T05:10:30.970Z,30.2
2018-01-23T05:11:30.866Z,26.6
2018-01-23T05:12:30.908Z,25.8
2018-01-23T05:13:30.277Z,28.5
2018-01-23T05:14:30.740Z,30.2
2018-01-23T05:15:30.646Z,30.3
2018-01-23T05:16:30.968Z,29.8
2018-01-23T05:17:30.337Z,29.3
2018-01-23T05:18:30.098Z,29
2018-01-23T05:19:30.306Z,28.8
2018-01-23T05:20:30.025Z,28.8
2018-01-23T05:21:30.214Z,28.9
2018-01-23T05:22:30.111Z,29.1
2018-01-23T05:23:29.985Z,29.3
2018-01-23T05:24:29.764Z,29.6
2018-01-23T05:25:29.740Z,29.9
2018-01-23T05:26:29.933Z,30.2
2018-01-23T05:27:29.952Z,30.6
2018-01-23T05:28:29.545Z,31.4
2018-01-23T05:29:29.447Z,32.1
2018-01-23T05:30:29.620Z,32.8
2018-01-23T05:31:29.096Z,33.4
2018-01-23T05:32:29.068Z,34
2018-01-23T05:33:29.303Z,34.4
2018-01-23T05:34:29.079Z,34.8
2018-01-23T05:35:29.070Z,35.1
2018-01-23T05:36:28.787Z,35.5
2018-01-23T05:37:29.034Z,35.8
2018-01-23T05:38:28.856Z,36.1
2018-01-23T05:39:29.050Z,36.2
2018-01-23T05:40:28.591Z,36.3
2018-01-23T05:41:28.721Z,36.4
2018-01-23T05:42:28.451Z,36.5
2018-01-23T05:43:28.716Z,36.6
2018-01-23T05:44:28.576Z,36.6
2018-01-23T05:45:28.645Z,36.8
2018-01-23T05:46:28.630Z,37
2018-01-23T05:47:28.716Z,37.3
2018-01-23T05:48:29.012Z,37.7
2018-01-23T05:49:28.028Z,38.1
2018-01-23T05:50:27.681Z,38.2
2018-01-23T05:51:27.932Z,38.7
2018-01-23T05:52:27.981Z,33.2
2018-01-23T05:53:27.836Z,29.4
2018-01-23T05:54:27.966Z,28.5
2018-01-23T05:55:27.296Z,28.8
2018-01-23T05:56:27.384Z,28.9
2018-01-23T05:57:27.502Z,24.3
2018-01-23T05:58:27.421Z,23.2
2018-01-23T05:59:27.086Z,23.4
2018-01-23T06:00:27.040Z,26.9
2018-01-23T06:01:27.465Z,29.1
2018-01-23T06:02:26.857Z,29.7
2018-01-23T06:03:26.651Z,29.7
2018-01-23T06:04:26.712Z,29.3
2018-01-23T06:05:26.864Z,29.1
2018-01-23T06:06:26.750Z,28.6
2018-01-23T06:07:26.652Z,28.5
2018-01-23T06:08:26.176Z,28.5
2018-01-23T06:09:26.282Z,28.6
2018-01-23T06:10:26.438Z,28.9
2018-01-23T06:11:26.534Z,29.1
2018-01-23T06:12:26.088Z,29.3
2018-01-23T06:13:26.040Z,29.7
2018-01-23T06:14:26.155Z,30
2018-01-23T06:15:26.254Z,30.8
2018-01-23T06:16:25.635Z,31.6
2018-01-23T06:17:25.740Z,32.3
2018-01-23T06:18:25.779Z,32.9
2018-01-23T06:19:25.576Z,33.5
2018-01-23T06:20:25.550Z,34
2018-01-23T06:21:25.850Z,34.4
2018-01-23T06:22:25.592Z,34.7
2018-01-23T06:23:25.222Z,35
2018-01-23T06:24:24.911Z,35.3
2018-01-23T06:25:25.028Z,35.5
2018-01-23T06:26:25.041Z,35.8
2018-01-23T06:27:24.811Z,35.9
2018-01-23T06:28:24.856Z,36
2018-01-23T06:29:25.231Z,36.1
2018-01-23T06:30:25.135Z,36.1
2018-01-23T06:31:24.589Z,36.2
2018-01-23T06:32:26.310Z,36.3
2018-01-23T06:33:25.984Z,36.6
2018-01-23T06:34:25.787Z,36.9
2018-01-23T06:35:25.816Z,37.6
2018-01-23T06:36:26.025Z,38
2018-01-23T06:37:25.671Z,38.2
2018-01-23T06:38:25.685Z,38.6
2018-01-23T06:39:25.616Z,38.6
2018-01-23T06:40:25.444Z,38.8
2018-01-23T06:41:25.525Z,37.1
2018-01-23T06:42:25.466Z,30.6
2018-01-23T06:43:25.478Z,28.6
2018-01-23T06:44:25.330Z,28.1
2018-01-23T06:45:24.884Z,29.1
2018-01-23T06:46:24.614Z,26.3
2018-01-23T06:47:24.872Z,23.9
2018-01-23T06:48:24.701Z,23.4
2018-01-23T06:49:24.922Z,25.1
2018-01-23T06:50:24.722Z,28.4
2018-01-23T06:51:24.948Z,29.7
2018-01-23T06:52:24.322Z,27.4
2018-01-23T06:53:24.620Z,16.1
2018-01-23T06:54:24.192Z,3.9
2018-01-23T06:55:24.381Z,-1.4
2018-01-23T06:56:24.110Z,3.6
2018-01-23T06:57:24.546Z,14.8
2018-01-23T06:58:23.909Z,25.7
2018-01-23T06:59:24.191Z,31.3
2018-01-23T07:00:24.017Z,34.8
2018-01-23T07:01:23.659Z,37.3
2018-01-23T07:02:23.839Z,39
2018-01-23T07:03:23.834Z,40.3
2018-01-23T07:04:23.455Z,41
2018-01-23T07:05:23.553Z,41.4
2018-01-23T07:06:23.470Z,41.5
2018-01-23T07:07:23.447Z,41.4
2018-01-23T07:08:22.877Z,39.8
2018-01-23T07:09:23.645Z,35.8
2018-01-23T07:10:22.733Z,34.1
2018-01-23T07:11:23.121Z,32.8
2018-01-23T07:12:23.226Z,30.9
2018-01-23T07:13:22.805Z,27.6
2018-01-23T07:14:22.632Z,24.1
2018-01-23T07:15:22.758Z,23.3
2018-01-23T07:16:22.831Z,24.9
2018-01-23T07:17:22.345Z,28.6
2018-01-23T07:18:22.433Z,30.3
2018-01-23T07:19:22.866Z,31.1
2018-01-23T07:20:21.955Z,31.3
2018-01-23T07:21:21.912Z,31.4
2018-01-23T07:22:22.143Z,31.6
2018-01-23T07:23:21.700Z,31.8
2018-01-23T07:24:22.129Z,32.1
2018-01-23T07:25:21.937Z,32.3
2018-01-23T07:26:21.950Z,32.6
2018-01-23T07:28:21.490Z,33.6
2018-01-23T07:29:21.411Z,34.1
2018-01-23T07:30:21.634Z,34.4
2018-01-23T07:31:21.709Z,34.8
2018-01-23T07:32:21.559Z,35.4
2018-01-23T07:33:21.086Z,35.9
2018-01-23T07:34:21.124Z,36.2
2018-01-23T07:35:35.784Z,36.5
2018-01-23T07:36:21.137Z,36.8
2018-01-23T07:37:20.931Z,37.1
2018-01-23T07:38:20.857Z,37.4
2018-01-23T07:39:20.640Z,37.4
2018-01-23T07:40:20.798Z,37.1
2018-01-23T07:41:20.842Z,36.9
2018-01-23T07:42:20.830Z,36.8
2018-01-23T07:43:35.215Z,36.8
2018-01-23T07:44:20.751Z,35.3
2018-01-23T07:45:20.121Z,28.8
2018-01-23T07:46:20.087Z,26.3
2018-01-23T07:47:19.946Z,26.5
2018-01-23T07:48:19.985Z,29.6
2018-01-23T07:49:20.474Z,27.8
2018-01-23T07:50:20.256Z,23.9
2018-01-23T07:51:19.771Z,23.3
2018-01-23T07:52:19.630Z,24.9
2018-01-23T07:53:34.705Z,28.2
2018-01-23T07:54:19.574Z,29.6
2018-01-23T07:55:34.265Z,30.5
2018-01-23T07:56:19.502Z,30.8
2018-01-23T07:57:19.494Z,30.9
2018-01-23T07:58:18.989Z,30.9
2018-01-23T07:59:19.359Z,30.9
2018-01-23T08:00:19.168Z,30.9
2018-01-23T08:01:19.100Z,31
2018-01-23T08:02:19.238Z,31.2
2018-01-23T08:03:18.795Z,31.6
2018-01-23T08:04:33.752Z,31.9
2018-01-23T08:05:18.718Z,32.3
2018-01-23T08:06:18.551Z,32.7
2018-01-23T08:07:18.434Z,33.3
2018-01-23T08:08:18.417Z,34.2
2018-01-23T08:09:33.126Z,34.9
2018-01-23T08:10:18.136Z,35.3
2018-01-23T08:11:18.202Z,35.7
2018-01-23T08:12:18.311Z,35.9
2018-01-23T08:13:33.486Z,36.1
2018-01-23T08:14:17.988Z,36.3
2018-01-23T08:15:17.662Z,36.6
2018-01-23T08:16:17.801Z,36.8
2018-01-23T08:17:18.284Z,37.1
2018-01-23T08:18:17.618Z,37.3
2018-01-23T08:19:18.191Z,37.4
2018-01-23T08:20:34.123Z,37.6
2018-01-23T08:21:17.853Z,37.6
2018-01-23T08:22:17.175Z,34.4
2018-01-23T08:23:17.347Z,27.7
2018-01-23T08:25:17.209Z,27.5
2018-01-23T08:26:16.842Z,30.3
2018-01-23T08:27:16.923Z,26.3
2018-01-23T08:28:16.772Z,23.9
2018-01-23T08:29:16.882Z,23.5
2018-01-23T08:30:16.735Z,26.5
2018-01-23T08:31:16.701Z,29.2
2018-01-23T08:32:16.793Z,30.4
2018-01-23T08:33:46.378Z,30.9
2018-01-23T08:34:16.557Z,30.8
2018-01-23T08:35:16.518Z,30.7
2018-01-23T08:36:16.139Z,30.7
2018-01-23T08:37:16.015Z,30.8
2018-01-23T08:38:16.372Z,31
2018-01-23T08:39:15.827Z,31.3
2018-01-23T08:40:16.129Z,31.7
2018-01-23T08:41:15.836Z,32.1
2018-01-23T08:42:15.781Z,32.5
2018-01-23T08:43:16.085Z,32.9
2018-01-23T08:44:15.370Z,33.4
2018-01-23T08:45:15.668Z,34.2
2018-01-23T08:46:30.550Z,35
2018-01-23T08:47:15.194Z,35.6
2018-01-23T08:48:15.478Z,36.1
2018-01-23T08:49:15.750Z,36.4
2018-01-23T08:50:15.560Z,36.7
2018-01-23T08:51:14.990Z,37.1
2018-01-23T08:52:15.157Z,37.3
2018-01-23T08:53:15.323Z,37.4
2018-01-23T08:54:15.072Z,37.3
2018-01-23T08:55:15.128Z,37.1
2018-01-23T08:56:14.917Z,32
2018-01-23T08:57:14.599Z,27.9
2018-01-23T08:58:14.380Z,26.9
2018-01-23T08:59:14.327Z,28.7
2018-01-23T09:00:29.578Z,30.3
2018-01-23T09:01:44.352Z,25.9
2018-01-23T09:02:14.730Z,24.4
2018-01-23T09:03:14.175Z,24.1
2018-01-23T09:04:14.157Z,27.4
2018-01-23T09:05:14.037Z,29.7
2018-01-23T09:06:13.964Z,31
2018-01-23T09:07:13.627Z,31.6
2018-01-23T09:08:13.734Z,31.9
2018-01-23T09:09:13.998Z,32.2
2018-01-23T09:10:13.854Z,32.4
2018-01-23T09:11:13.713Z,32.8
2018-01-23T09:12:13.317Z,33.3
2018-01-23T09:13:13.564Z,33.9
2018-01-23T09:14:13.486Z,34.3
2018-01-23T09:15:12.888Z,34.6
2018-01-23T09:16:13.203Z,34.6
2018-01-23T09:17:12.996Z,34.8
2018-01-23T09:18:12.679Z,34.8
2018-01-23T09:19:13.201Z,35.3
2018-01-23T09:20:13.256Z,35.9
2018-01-23T09:21:12.675Z,36.3
2018-01-23T09:22:12.887Z,36.6
2018-01-23T09:23:27.905Z,36.8
2018-01-23T09:25:12.288Z,37.1
2018-01-23T09:25:14.636Z,37.1
2018-01-23T09:26:29.240Z,31
2018-01-23T09:28:47.863Z,29.5
2018-01-23T09:29:47.967Z,30.8
2018-01-23T09:30:17.976Z,26.5
2018-01-23T09:31:17.877Z,24.5
2018-01-23T09:33:37.394Z,24.1
2018-01-23T09:34:37.200Z,29.2
2018-01-23T09:35:22.333Z,30.6
2018-01-23T09:36:22.258Z,31.3
2018-01-23T09:37:22.730Z,31.8
2018-01-23T09:38:22.086Z,32.1
2018-01-23T09:39:22.006Z,32.3
2018-01-23T09:40:21.997Z,32.6
2018-01-23T09:41:21.626Z,32.9
2018-01-23T09:42:21.629Z,33.4
2018-01-23T09:43:21.724Z,33.8
2018-01-23T09:44:36.398Z,34
2018-01-23T09:45:21.595Z,34.2
2018-01-23T09:46:21.293Z,34.3
2018-01-23T09:47:21.411Z,34.3
2018-01-23T09:48:21.398Z,34.8
2018-01-23T09:49:21.562Z,35.3
2018-01-23T09:50:21.568Z,35.8
2018-01-23T09:51:20.934Z,36.1
2018-01-23T09:52:21.141Z,36.3
2018-01-23T09:53:21.611Z,36.4
2018-01-23T09:54:20.677Z,36.6
2018-01-23T09:55:20.965Z,35.6
2018-01-23T09:56:20.619Z,30.3
2018-01-23T09:57:20.476Z,28.4
2018-01-23T09:58:20.411Z,28
2018-01-23T09:59:22.224Z,29.3
2018-01-23T10:00:20.591Z,28.2
2018-01-23T10:01:21.273Z,24.4
2018-01-23T10:02:20.241Z,23.6
2018-01-23T10:03:20.449Z,24.8
2018-01-23T10:04:34.950Z,27.9
2018-01-23T10:05:20.111Z,29.5
2018-01-23T10:06:19.862Z,30.6
2018-01-23T10:07:19.745Z,31
2018-01-23T10:08:19.790Z,31.1
2018-01-23T10:09:19.800Z,31.1
2018-01-23T10:10:19.406Z,31.3
2018-01-23T10:11:19.729Z,31.5
2018-01-23T10:12:19.308Z,31.8
2018-01-23T10:13:19.488Z,32.2
2018-01-23T10:15:18.953Z,33
2018-01-23T10:16:19.103Z,33.5
2018-01-23T10:17:18.693Z,33.8
2018-01-23T10:18:18.729Z,34.2
2018-01-23T10:19:18.846Z,34.8
2018-01-23T10:20:18.905Z,35.3
2018-01-23T10:21:18.591Z,35.6
2018-01-23T10:22:18.846Z,35.9
2018-01-23T10:23:19.002Z,36.3
2018-01-23T10:24:18.391Z,36.5
2018-01-23T10:25:18.628Z,36.8
2018-01-23T10:26:18.542Z,33.2
2018-01-23T10:27:18.043Z,29.3
2018-01-23T10:28:18.130Z,28.1
2018-01-23T10:29:18.297Z,28.8
2018-01-23T10:30:17.909Z,30.3
2018-01-23T10:31:18.412Z,26.4
2018-01-23T10:32:17.964Z,24.3
2018-01-23T10:33:18.091Z,23.9
2018-01-23T10:34:32.450Z,26.7
2018-01-23T10:35:17.846Z,29.1
2018-01-23T10:36:17.589Z,30.7
2018-01-23T10:37:32.462Z,31.6
2018-01-23T10:38:17.299Z,32.2
2018-01-23T10:39:17.579Z,32.6
2018-01-23T10:40:17.070Z,32.9
2018-01-23T10:41:16.913Z,33.4
2018-01-23T10:42:31.948Z,33.8
2018-01-23T10:43:17.569Z,34.2
2018-01-23T10:44:16.663Z,34.5
2018-01-23T10:45:17.166Z,34.6
2018-01-23T10:46:16.549Z,34.7
2018-01-23T10:47:16.995Z,34.8
2018-01-23T10:48:16.378Z,33.8
2018-01-23T10:49:16.833Z,29.4
2018-01-23T10:50:16.293Z,28.1
2018-01-23T10:51:16.471Z,27.6
2018-01-23T10:52:16.586Z,29
2018-01-23T10:53:16.058Z,28.1
2018-01-23T10:54:16.611Z,24.1
2018-01-23T10:55:16.185Z,23.3
2018-01-23T10:56:15.740Z,24.3
2018-01-23T10:57:15.839Z,27.4
2018-01-23T10:58:15.576Z,29.2
2018-01-23T10:59:15.755Z,30.4
2018-01-23T11:00:16.111Z,30.9
2018-01-23T11:01:15.976Z,31.1
2018-01-23T11:02:15.465Z,31.3
2018-01-23T11:03:15.214Z,31.6
2018-01-23T11:04:15.787Z,31.9
2018-01-23T11:05:15.245Z,32.2
2018-01-23T11:06:14.978Z,32.6
2018-01-23T11:07:15.299Z,33.1
2018-01-23T11:09:15.033Z,33.8
2018-01-23T11:10:14.813Z,34
2018-01-23T11:11:14.708Z,34.3
2018-01-23T11:12:29.856Z,32.8
2018-01-23T11:13:15.012Z,28.6
2018-01-23T11:14:29.433Z,27.3
2018-01-23T11:15:14.792Z,27.4
2018-01-23T11:16:14.368Z,28.9
2018-01-23T11:17:14.137Z,26.8
2018-01-23T11:18:14.342Z,23.6
2018-01-23T11:19:14.356Z,22.9
2018-01-23T11:20:14.233Z,24.8
2018-01-23T11:21:13.953Z,27.6
2018-01-23T11:22:13.857Z,29.3
2018-01-23T11:23:13.745Z,30.5
2018-01-23T11:24:29.005Z,30.9
2018-01-23T11:25:13.526Z,31.1
2018-01-23T11:26:13.711Z,31.3
2018-01-23T11:27:13.503Z,31.6
2018-01-23T11:28:13.760Z,32
2018-01-23T11:29:13.732Z,32.4
2018-01-23T11:30:13.100Z,32.8
2018-01-23T11:31:13.475Z,33.4
2018-01-23T11:32:13.179Z,34.3
2018-01-23T11:33:13.024Z,34.8
2018-01-23T11:34:13.034Z,35.2
2018-01-23T11:35:27.874Z,35.8
2018-01-23T11:36:12.678Z,36.4
2018-01-23T11:37:12.782Z,35
2018-01-23T11:38:12.788Z,31.4
2018-01-23T11:39:12.560Z,29.9
2018-01-23T11:40:12.681Z,29.6
2018-01-23T11:41:12.367Z,30.8
2018-01-23T11:42:12.139Z,28
2018-01-23T11:43:12.776Z,24.9
2018-01-23T11:44:12.486Z,24.2
2018-01-23T11:45:11.909Z,26.2
2018-01-23T11:46:11.934Z,28.5
2018-01-23T11:47:11.983Z,30.1
2018-01-23T11:48:11.740Z,31.3
2018-01-23T11:49:12.048Z,31.9
2018-01-23T11:50:11.386Z,32.4
2018-01-23T11:51:11.695Z,32.9
2018-01-23T11:52:11.737Z,33.6
2018-01-23T11:53:11.258Z,34.2
2018-01-23T11:54:11.745Z,34.6
2018-01-23T11:55:11.278Z,34.9
2018-01-23T11:56:11.293Z,35.1
2018-01-23T11:57:11.018Z,31.9
2018-01-23T11:58:11.174Z,28.9
2018-01-23T11:59:11.003Z,27.9
2018-01-23T12:00:10.940Z,28.6
2018-01-23T12:01:10.665Z,30.2
2018-01-23T12:02:11.045Z,31.2
2018-01-23T12:03:10.829Z,32.1
2018-01-23T12:04:10.581Z,32.8
2018-01-23T12:05:10.678Z,33.3
2018-01-23T12:06:11.309Z,33.9
2018-01-23T12:07:10.290Z,34.3
2018-01-23T12:08:10.235Z,34.6
2018-01-23T12:09:24.909Z,30.8
2018-01-23T12:10:10.055Z,28.3
2018-01-23T12:11:10.537Z,27.4
2018-01-23T12:12:10.140Z,28.2
2018-01-23T12:13:09.823Z,29.4
2018-01-23T12:14:09.674Z,25.4
2018-01-23T12:15:09.955Z,23.4
2018-01-23T12:16:09.573Z,23.1
2018-01-23T12:17:09.463Z,26.3
2018-01-23T12:18:09.235Z,28.7
2018-01-23T12:19:09.430Z,30.4
2018-01-23T12:20:09.495Z,31.4
2018-01-23T12:21:09.173Z,32
2018-01-23T12:22:09.059Z,32.6
2018-01-23T12:23:09.213Z,33.1
2018-01-23T12:24:09.290Z,33.7
2018-01-23T12:25:23.862Z,34
2018-01-23T12:26:08.898Z,34.3
2018-01-23T12:27:09.104Z,33.4
2018-01-23T12:28:08.980Z,28.9
2018-01-23T12:29:08.700Z,27.5
2018-01-23T12:30:08.479Z,27.1
2018-01-23T12:31:23.256Z,28.9
2018-01-23T12:32:08.463Z,30.4
2018-01-23T12:33:08.569Z,31.5
2018-01-23T12:34:08.426Z,32.2
2018-01-23T12:35:22.815Z,32.7
2018-01-23T12:36:08.093Z,33.3
2018-01-23T12:37:08.185Z,34
2018-01-23T12:38:08.054Z,34.5
2018-01-23T12:39:07.804Z,34.8
2018-01-23T12:40:07.684Z,34.9
2018-01-23T12:41:07.550Z,35.2
2018-01-23T12:42:07.625Z,35.3
2018-01-23T12:43:07.341Z,35.4
2018-01-23T12:44:07.384Z,35.4
2018-01-23T12:45:07.901Z,35.6
2018-01-23T12:46:07.252Z,36.1
2018-01-23T12:47:07.418Z,36.5
2018-01-23T12:48:07.500Z,36.8
2018-01-23T12:49:07.639Z,35.6
2018-01-23T12:50:07.097Z,30.6
2018-01-23T12:51:07.261Z,28.9
2018-01-23T12:52:07.266Z,28.6
2018-01-23T12:53:06.565Z,30.2
2018-01-23T12:54:07.061Z,28.8
2018-01-23T12:55:06.860Z,25.1
2018-01-23T12:56:06.843Z,24.3
2018-01-23T12:57:06.472Z,25.6
2018-01-23T12:58:06.939Z,28.6
2018-01-23T12:59:06.596Z,30.3
2018-01-23T13:00:06.182Z,31.4
2018-01-23T13:01:06.262Z,32
2018-01-23T13:02:06.474Z,32.6
2018-01-23T13:03:05.929Z,32.9
2018-01-23T13:04:06.166Z,33.7
2018-01-23T13:05:06.077Z,34.4
2018-01-23T13:06:05.637Z,34.8
2018-01-23T13:07:06.042Z,35
2018-01-23T13:08:05.544Z,35.2
2018-01-23T13:09:05.623Z,35.3
2018-01-23T13:10:05.906Z,35.4
2018-01-23T13:11:05.951Z,35.5
2018-01-23T13:12:05.479Z,35.8
2018-01-23T13:13:05.886Z,36.2
2018-01-23T13:14:05.485Z,36.6
2018-01-23T13:15:05.103Z,36.8
2018-01-23T13:16:05.155Z,35.3
2018-01-23T13:17:05.533Z,30.3
2018-01-23T13:18:04.526Z,28.8
2018-01-23T13:19:04.577Z,28.6
2018-01-23T13:20:04.661Z,30.3
2018-01-23T13:21:04.547Z,28.4
2018-01-23T13:22:04.452Z,24.9
2018-01-23T13:23:04.461Z,24.2
2018-01-23T13:24:04.703Z,25.9
2018-01-23T13:25:04.523Z,28.8
2018-01-23T13:26:04.444Z,30.5
2018-01-23T13:27:04.317Z,31.6
2018-01-23T13:28:04.915Z,32.2
2018-01-23T13:29:03.860Z,32.7
2018-01-23T13:30:03.824Z,33.3
2018-01-23T13:31:03.931Z,33.8
2018-01-23T13:32:03.861Z,34.2
2018-01-23T13:33:03.766Z,34.4
2018-01-23T13:34:03.361Z,34.6
2018-01-23T13:35:04.275Z,34.8
2018-01-23T13:36:03.867Z,34.9
2018-01-23T13:37:03.614Z,34.9
2018-01-23T13:38:03.615Z,34.9
2018-01-23T13:39:03.177Z,35.3
2018-01-23T13:40:03.261Z,35.8
2018-01-23T13:41:03.922Z,33.6
2018-01-23T13:42:03.326Z,29.6
2018-01-23T13:43:02.694Z,28.4
2018-01-23T13:44:03.166Z,28.7
2018-01-23T13:45:02.514Z,30.5
2018-01-23T13:46:02.483Z,27.6
2018-01-23T13:47:02.293Z,24.6
2018-01-23T13:48:02.808Z,23.9
2018-01-23T13:49:02.487Z,26.1
2018-01-23T13:50:02.701Z,28.8
2018-01-23T13:51:02.035Z,30.2
2018-01-23T13:52:01.760Z,31.1
2018-01-23T13:53:02.432Z,31.4
2018-01-23T13:54:02.045Z,31.6
2018-01-23T13:55:02.125Z,31.7
2018-01-23T13:56:02.487Z,32
2018-01-23T13:57:01.649Z,32.3
2018-01-23T13:58:02.159Z,32.8
2018-01-23T13:59:01.816Z,33.2
2018-01-23T14:00:01.264Z,33.4
2018-01-23T14:01:01.571Z,33.6
2018-01-23T14:02:01.486Z,33.7
2018-01-23T14:03:01.489Z,33.8
2018-01-23T14:04:01.439Z,34.1
2018-01-23T14:05:01.362Z,34.6
2018-01-23T14:06:01.223Z,34.9
2018-01-23T14:07:00.748Z,35.3
2018-01-23T14:08:00.791Z,35.5
2018-01-23T14:09:00.766Z,35.8
2018-01-23T14:10:00.786Z,36
2018-01-23T14:11:00.521Z,34.4
2018-01-23T14:12:00.677Z,29.4
2018-01-23T14:13:00.577Z,27.9
2018-01-23T14:14:00.625Z,27.9
2018-01-23T14:15:00.655Z,29.9
2018-01-23T14:16:00.544Z,31.1
2018-01-23T14:17:00.382Z,32.2
2018-01-23T14:18:00.163Z,32.9
2018-01-23T14:19:00.285Z,33.3
2018-01-23T14:20:00.535Z,33.5
2018-01-23T14:21:00.296Z,33.7
2018-01-23T14:21:59.936Z,33.8
2018-01-23T14:23:00.159Z,33.9
2018-01-23T14:23:59.769Z,33.9
2018-01-23T14:24:59.851Z,33.9
2018-01-23T14:25:59.440Z,33.9
2018-01-23T14:26:59.118Z,32.6
2018-01-23T14:27:59.640Z,28.4
2018-01-23T14:28:59.228Z,27.1
2018-01-23T14:29:59.139Z,27
2018-01-23T14:30:59.284Z,29.1
2018-01-23T14:31:59.136Z,30.7
2018-01-23T14:32:58.781Z,31.8
2018-01-23T14:33:58.752Z,32.4
2018-01-23T14:34:58.647Z,33.1
2018-01-23T14:35:59.052Z,33.8
2018-01-23T14:36:58.504Z,34.3
2018-01-23T14:37:58.578Z,34.7
2018-01-23T14:38:58.083Z,34.9
2018-01-23T14:39:58.720Z,35.1
2018-01-23T14:40:58.488Z,33.6
2018-01-23T14:41:58.461Z,29.5
2018-01-23T14:42:58.276Z,28.3
2018-01-23T14:43:58.052Z,28
2018-01-23T14:44:58.320Z,29.8
2018-01-23T14:45:57.946Z,31.1
2018-01-23T14:46:58.149Z,32.2
2018-01-23T14:47:57.603Z,32.8
2018-01-23T14:48:57.652Z,33.3
2018-01-23T14:49:57.458Z,33.7
2018-01-23T14:50:57.782Z,34.1
2018-01-23T14:51:57.956Z,34.3
2018-01-23T14:52:57.761Z,34.4
2018-01-23T14:53:57.438Z,34.6
2018-01-23T14:54:57.440Z,34.6
2018-01-23T14:55:57.677Z,34.7
2018-01-23T14:56:57.330Z,31.9
2018-01-23T14:57:57.281Z,28.6
2018-01-23T14:58:57.643Z,27.6
2018-01-23T14:59:57.018Z,27.9
2018-01-23T15:00:57.093Z,29.9
2018-01-23T15:01:56.913Z,31.3
2018-01-23T15:02:56.789Z,32.2
2018-01-23T15:03:56.917Z,32.8
2018-01-23T15:05:07.842Z,33
2018-01-23T15:06:07.711Z,33.7
2018-01-23T15:07:07.037Z,34
2018-01-23T15:08:07.545Z,34.2
2018-01-23T15:09:07.211Z,34.3
2018-01-23T15:10:07.260Z,34.4
2018-01-23T15:11:07.088Z,34.5
2018-01-23T15:12:07.218Z,34.6
2018-01-23T15:13:07.068Z,34.6
2018-01-23T15:14:06.603Z,34.7
2018-01-23T15:15:06.807Z,35
2018-01-23T15:16:06.677Z,35.5
2018-01-23T15:17:06.709Z,35.9
2018-01-23T15:18:06.761Z,36.1
2018-01-23T15:19:06.635Z,32.1
2018-01-23T15:20:06.445Z,29
2018-01-23T15:21:06.314Z,28
2018-01-23T15:22:06.169Z,29
2018-01-23T15:23:06.002Z,30.8
2018-01-23T15:24:06.021Z,31.9
2018-01-23T15:25:05.770Z,32.8
2018-01-23T15:26:05.906Z,33.3
2018-01-23T15:27:06.157Z,33.7
2018-01-23T15:28:05.525Z,34